sensor_id;sensor_type;location;lat;lon;timestamp;pressure;altitude;pressure_sealevel;temperature;humidity
60267;BME280;46125;61.360;-149.532;2023-09-19T00:01:39;98324.52;;;11.14;52.62
60267;BME280;46125;61.360;-149.532;2023-09-19T00:04:07;98327.56;;;12.55;48.40
60267;BME280;46125;61.360;-149.532;2023-09-19T00:06:36;98329.37;;;11.50;52.67
60267;BME280;46125;61.360;-149.532;2023-09-19T00:09:04;98332.80;;;11.96;51.37
60267;BME280;46125;61.360;-149.532;2023-09-19T00:11:32;98340.34;;;10.01;53.77
60267;BME280;46125;61.360;-149.532;2023-09-19T00:14:01;98347.08;;;12.60;48.61
60267;BME280;46125;61.360;-149.532;2023-09-19T00:16:29;98352.54;;;13.27;49.57
60267;BME280;46125;61.360;-149.532;2023-09-19T00:18:58;98358.05;;;11.99;50.90
60267;BME280;46125;61.360;-149.532;2023-09-19T00:21:26;98365.48;;;11.13;52.67
60267;BME280;46125;61.360;-149.532;2023-09-19T00:23:55;98369.30;;;11.88;53.31
60267;BME280;46125;61.360;-149.532;2023-09-19T00:26:23;98375.92;;;11.91;52.02
60267;BME280;46125;61.360;-149.532;2023-09-19T00:28:53;98381.48;;;11.68;51.82
60267;BME280;46125;61.360;-149.532;2023-09-19T00:31:21;98388.24;;;11.73;53.14
60267;BME280;46125;61.360;-149.532;2023-09-19T00:33:49;98393.85;;;13.15;50.65
60267;BME280;46125;61.360;-149.532;2023-09-19T00:36:18;98397.02;;;12.26;51.48
60267;BME280;46125;61.360;-149.532;2023-09-19T00:38:46;98405.37;;;11.62;53.31
60267;BME280;46125;61.360;-149.532;2023-09-19T00:41:15;98406.24;;;11.33;52.51
60267;BME280;46125;61.360;-149.532;2023-09-19T00:43:43;98409.93;;;10.93;55.44
60267;BME280;46125;61.360;-149.532;2023-09-19T00:46:11;98415.60;;;12.38;50.32
60267;BME280;46125;61.360;-149.532;2023-09-19T00:48:41;98416.65;;;12.38;50.78
60267;BME280;46125;61.360;-149.532;2023-09-19T00:51:11;98422.83;;;12.70;50.81
60267;BME280;46125;61.360;-149.532;2023-09-19T00:53:40;98428.98;;;11.79;50.24
60267;BME280;46125;61.360;-149.532;2023-09-19T00:56:09;98432.56;;;12.02;52.85
60267;BME280;46125;61.360;-149.532;2023-09-19T00:58:37;98434.70;;;12.83;50.76
60267;BME280;46125;61.360;-149.532;2023-09-19T01:01:06;98440.40;;;13.13;50.59
60267;BME280;46125;61.360;-149.532;2023-09-19T01:03:34;98440.71;;;13.16;48.55
60267;BME280;46125;61.360;-149.532;2023-09-19T01:06:03;98444.54;;;13.49;49.44
60267;BME280;46125;61.360;-149.532;2023-09-19T01:08:31;98447.62;;;13.54;48.54
60267;BME280;46125;61.360;-149.532;2023-09-19T01:11:03;98450.95;;;13.68;48.86
60267;BME280;46125;61.360;-149.532;2023-09-19T01:13:40;98454.83;;;11.65;51.91
60267;BME280;46125;61.360;-149.532;2023-09-19T01:16:16;98454.65;;;12.35;52.41
60267;BME280;46125;61.360;-149.532;2023-09-19T01:18:55;98456.99;;;12.68;50.54
60267;BME280;46125;61.360;-149.532;2023-09-19T01:21:36;98460.05;;;12.58;51.50
60267;BME280;46125;61.360;-149.532;2023-09-19T01:24:34;98465.08;;;13.26;48.38
60267;BME280;46125;61.360;-149.532;2023-09-19T01:27:25;98475.23;;;12.38;50.48
60267;BME280;46125;61.360;-149.532;2023-09-19T01:30:09;98482.37;;;13.18;50.26
60267;BME280;46125;61.360;-149.532;2023-09-19T01:32:37;98489.11;;;13.60;47.58
60267;BME280;46125;61.360;-149.532;2023-09-19T01:35:07;98488.84;;;12.78;49.51
60267;BME280;46125;61.360;-149.532;2023-09-19T01:37:35;98492.27;;;11.84;50.47
60267;BME280;46125;61.360;-149.532;2023-09-19T01:40:06;98494.14;;;13.30;50.98
60267;BME280;46125;61.360;-149.532;2023-09-19T01:42:40;98497.68;;;13.40;46.52
60267;BME280;46125;61.360;-149.532;2023-09-19T01:45:16;98503.00;;;12.10;49.35
60267;BME280;46125;61.360;-149.532;2023-09-19T01:47:52;98509.22;;;13.81;46.47
60267;BME280;46125;61.360;-149.532;2023-09-19T01:50:28;98513.43;;;13.72;48.41
60267;BME280;46125;61.360;-149.532;2023-09-19T01:53:05;98514.84;;;13.69;46.25
60267;BME280;46125;61.360;-149.532;2023-09-19T01:55:43;98518.27;;;13.47;47.24
60267;BME280;46125;61.360;-149.532;2023-09-19T01:58:16;98518.84;;;13.26;47.54
60267;BME280;46125;61.360;-149.532;2023-09-19T02:00:49;98526.67;;;10.77;50.78
60267;BME280;46125;61.360;-149.532;2023-09-19T02:03:18;98533.13;;;11.74;52.35
60267;BME280;46125;61.360;-149.532;2023-09-19T02:05:50;98532.70;;;13.55;49.22
60267;BME280;46125;61.360;-149.532;2023-09-19T02:08:26;98537.94;;;13.84;48.53
60267;BME280;46125;61.360;-149.532;2023-09-19T02:10:54;98549.02;;;13.87;51.20
60267;BME280;46125;61.360;-149.532;2023-09-19T02:13:23;98556.59;;;14.45;47.95
60267;BME280;46125;61.360;-149.532;2023-09-19T02:15:52;98558.09;;;14.21;46.63
60267;BME280;46125;61.360;-149.532;2023-09-19T02:18:21;98559.40;;;14.10;46.69
60267;BME280;46125;61.360;-149.532;2023-09-19T02:20:49;98565.77;;;14.09;47.38
60267;BME280;46125;61.360;-149.532;2023-09-19T02:23:18;98569.57;;;13.76;47.02
60267;BME280;46125;61.360;-149.532;2023-09-19T02:25:54;98572.20;;;13.07;48.69
60267;BME280;46125;61.360;-149.532;2023-09-19T02:28:24;98576.55;;;13.00;47.93
60267;BME280;46125;61.360;-149.532;2023-09-19T02:30:58;98580.73;;;12.76;48.44
60267;BME280;46125;61.360;-149.532;2023-09-19T02:33:27;98584.08;;;12.50;48.54
60267;BME280;46125;61.360;-149.532;2023-09-19T02:35:57;98588.98;;;12.86;45.29
60267;BME280;46125;61.360;-149.532;2023-09-19T02:38:25;98595.52;;;12.96;45.77
60267;BME280;46125;61.360;-149.532;2023-09-19T02:40:59;98599.18;;;12.84;47.96
60267;BME280;46125;61.360;-149.532;2023-09-19T02:43:28;98601.82;;;11.67;50.44
60267;BME280;46125;61.360;-149.532;2023-09-19T02:45:56;98603.31;;;12.94;49.71
60267;BME280;46125;61.360;-149.532;2023-09-19T02:48:24;98608.02;;;13.30;48.27
60267;BME280;46125;61.360;-149.532;2023-09-19T02:50:58;98612.55;;;13.45;47.85
60267;BME280;46125;61.360;-149.532;2023-09-19T02:53:27;98618.76;;;13.07;49.34
60267;BME280;46125;61.360;-149.532;2023-09-19T02:55:56;98623.46;;;12.68;47.85
60267;BME280;46125;61.360;-149.532;2023-09-19T02:58:24;98629.17;;;13.53;47.56
60267;BME280;46125;61.360;-149.532;2023-09-19T03:00:59;98633.22;;;12.67;49.50
60267;BME280;46125;61.360;-149.532;2023-09-19T03:03:27;98638.33;;;12.71;48.54
60267;BME280;46125;61.360;-149.532;2023-09-19T03:05:55;98639.98;;;12.74;49.13
60267;BME280;46125;61.360;-149.532;2023-09-19T03:08:24;98646.98;;;12.79;49.08
60267;BME280;46125;61.360;-149.532;2023-09-19T03:10:52;98651.61;;;13.44;50.16
60267;BME280;46125;61.360;-149.532;2023-09-19T03:13:28;98656.58;;;13.84;46.22
60267;BME280;46125;61.360;-149.532;2023-09-19T03:15:56;98664.69;;;12.38;50.74
60267;BME280;46125;61.360;-149.532;2023-09-19T03:18:25;98666.84;;;13.81;48.30
60267;BME280;46125;61.360;-149.532;2023-09-19T03:20:55;98670.68;;;14.08;49.27
60267;BME280;46125;61.360;-149.532;2023-09-19T03:23:24;98674.68;;;12.64;51.11
60267;BME280;46125;61.360;-149.532;2023-09-19T03:25:52;98682.96;;;12.65;50.99
60267;BME280;46125;61.360;-149.532;2023-09-19T03:28:20;98686.46;;;12.76;50.26
60267;BME280;46125;61.360;-149.532;2023-09-19T03:31:00;98689.06;;;13.89;49.93
60267;BME280;46125;61.360;-149.532;2023-09-19T03:33:28;98690.68;;;13.72;49.86
60267;BME280;46125;61.360;-149.532;2023-09-19T03:36:03;98697.70;;;14.01;50.70
60267;BME280;46125;61.360;-149.532;2023-09-19T03:38:32;98701.84;;;13.57;51.31
60267;BME280;46125;61.360;-149.532;2023-09-19T03:41:01;98708.33;;;14.14;48.39
60267;BME280;46125;61.360;-149.532;2023-09-19T03:43:31;98711.02;;;13.79;49.38
60267;BME280;46125;61.360;-149.532;2023-09-19T03:46:02;98713.43;;;14.00;48.38
60267;BME280;46125;61.360;-149.532;2023-09-19T03:48:30;98718.39;;;13.59;49.29
60267;BME280;46125;61.360;-149.532;2023-09-19T03:50:59;98720.56;;;13.19;49.04
60267;BME280;46125;61.360;-149.532;2023-09-19T03:53:28;98723.87;;;13.45;47.39
60267;BME280;46125;61.360;-149.532;2023-09-19T03:55:57;98727.55;;;13.60;47.39
60267;BME280;46125;61.360;-149.532;2023-09-19T03:58:25;98731.13;;;13.65;46.51
60267;BME280;46125;61.360;-149.532;2023-09-19T04:00:56;98737.20;;;13.47;47.70
60267;BME280;46125;61.360;-149.532;2023-09-19T04:03:25;98743.97;;;13.47;46.32
60267;BME280;46125;61.360;-149.532;2023-09-19T04:05:53;98747.21;;;13.35;45.90
60267;BME280;46125;61.360;-149.532;2023-09-19T04:08:22;98755.12;;;13.09;46.21
60267;BME280;46125;61.360;-149.532;2023-09-19T04:10:51;98761.28;;;12.70;46.69
60267;BME280;46125;61.360;-149.532;2023-09-19T04:13:25;98766.80;;;12.69;47.01
60267;BME280;46125;61.360;-149.532;2023-09-19T04:15:54;98772.20;;;12.44;46.77
60267;BME280;46125;61.360;-149.532;2023-09-19T04:18:22;98780.34;;;11.63;48.65
60267;BME280;46125;61.360;-149.532;2023-09-19T04:20:51;98783.00;;;12.22;48.76
60267;BME280;46125;61.360;-149.532;2023-09-19T04:23:24;98790.46;;;12.19;48.83
60267;BME280;46125;61.360;-149.532;2023-09-19T04:25:52;98798.02;;;11.91;49.30
60267;BME280;46125;61.360;-149.532;2023-09-19T04:28:26;98805.80;;;11.83;49.73
60267;BME280;46125;61.360;-149.532;2023-09-19T04:30:54;98813.46;;;11.78;49.69
60267;BME280;46125;61.360;-149.532;2023-09-19T04:33:23;98821.87;;;11.59;51.04
60267;BME280;46125;61.360;-149.532;2023-09-19T04:35:52;98824.59;;;11.69;51.14
60267;BME280;46125;61.360;-149.532;2023-09-19T04:38:21;98825.21;;;11.31;51.83
60267;BME280;46125;61.360;-149.532;2023-09-19T04:40:58;98829.64;;;11.61;51.25
60267;BME280;46125;61.360;-149.532;2023-09-19T04:43:26;98836.25;;;11.72;50.91
60267;BME280;46125;61.360;-149.532;2023-09-19T04:46:00;98840.28;;;11.41;51.62
60267;BME280;46125;61.360;-149.532;2023-09-19T04:48:27;98845.27;;;11.44;50.93
60267;BME280;46125;61.360;-149.532;2023-09-19T04:50:56;98848.51;;;11.52;50.35
60267;BME280;46125;61.360;-149.532;2023-09-19T04:53:24;98852.04;;;10.99;51.27
60267;BME280;46125;61.360;-149.532;2023-09-19T04:55:53;98857.30;;;11.22;50.77
60267;BME280;46125;61.360;-149.532;2023-09-19T04:58:21;98859.89;;;11.46;50.87
60267;BME280;46125;61.360;-149.532;2023-09-19T05:00:50;98861.77;;;10.94;50.79
60267;BME280;46125;61.360;-149.532;2023-09-19T05:03:18;98863.75;;;11.10;50.79
60267;BME280;46125;61.360;-149.532;2023-09-19T05:05:47;98867.25;;;11.35;50.60
60267;BME280;46125;61.360;-149.532;2023-09-19T05:08:21;98870.75;;;10.99;51.48
60267;BME280;46125;61.360;-149.532;2023-09-19T05:10:54;98871.52;;;10.81;51.12
60267;BME280;46125;61.360;-149.532;2023-09-19T05:13:23;98880.10;;;10.90;51.62
60267;BME280;46125;61.360;-149.532;2023-09-19T05:15:59;98883.02;;;10.35;52.90
60267;BME280;46125;61.360;-149.532;2023-09-19T05:18:28;98887.82;;;9.25;55.81
60267;BME280;46125;61.360;-149.532;2023-09-19T05:20:56;98892.34;;;10.06;53.86
60267;BME280;46125;61.360;-149.532;2023-09-19T05:23:24;98894.14;;;10.08;53.61
60267;BME280;46125;61.360;-149.532;2023-09-19T05:25:53;98894.19;;;10.29;53.14
60267;BME280;46125;61.360;-149.532;2023-09-19T05:28:21;98895.96;;;10.33;52.91
60267;BME280;46125;61.360;-149.532;2023-09-19T05:30:50;98895.17;;;9.76;56.16
60267;BME280;46125;61.360;-149.532;2023-09-19T05:33:18;98900.86;;;8.65;59.08
60267;BME280;46125;61.360;-149.532;2023-09-19T05:35:52;98901.27;;;8.98;58.84
60267;BME280;46125;61.360;-149.532;2023-09-19T05:38:26;98902.78;;;8.93;59.01
60267;BME280;46125;61.360;-149.532;2023-09-19T05:40:54;98908.16;;;8.70;58.88
60267;BME280;46125;61.360;-149.532;2023-09-19T05:43:23;98915.10;;;8.90;57.78
60267;BME280;46125;61.360;-149.532;2023-09-19T05:45:56;98917.25;;;8.94;57.50
60267;BME280;46125;61.360;-149.532;2023-09-19T05:48:28;98914.46;;;9.60;55.78
60267;BME280;46125;61.360;-149.532;2023-09-19T05:50:58;98920.61;;;9.71;55.23
60267;BME280;46125;61.360;-149.532;2023-09-19T05:53:26;98920.55;;;9.73;54.48
60267;BME280;46125;61.360;-149.532;2023-09-19T05:55:55;98928.94;;;10.12;54.11
60267;BME280;46125;61.360;-149.532;2023-09-19T05:58:24;98935.19;;;9.36;54.82
60267;BME280;46125;61.360;-149.532;2023-09-19T06:00:52;98949.22;;;9.70;53.50
60267;BME280;46125;61.360;-149.532;2023-09-19T06:03:21;98953.58;;;9.74;53.46
60267;BME280;46125;61.360;-149.532;2023-09-19T06:05:49;98960.90;;;9.77;53.29
60267;BME280;46125;61.360;-149.532;2023-09-19T06:08:18;98972.28;;;8.54;57.40
60267;BME280;46125;61.360;-149.532;2023-09-19T06:10:47;98975.19;;;9.55;55.44
60267;BME280;46125;61.360;-149.532;2023-09-19T06:13:15;98980.48;;;9.02;57.46
60267;BME280;46125;61.360;-149.532;2023-09-19T06:15:43;98991.07;;;9.19;57.49
60267;BME280;46125;61.360;-149.532;2023-09-19T06:18:18;98990.96;;;8.86;58.14
60267;BME280;46125;61.360;-149.532;2023-09-19T06:20:47;98998.22;;;9.67;56.06
60267;BME280;46125;61.360;-149.532;2023-09-19T06:23:15;99003.20;;;7.85;60.22
60267;BME280;46125;61.360;-149.532;2023-09-19T06:25:44;99002.38;;;9.34;57.12
60267;BME280;46125;61.360;-149.532;2023-09-19T06:28:12;99001.25;;;9.26;57.04
60267;BME280;46125;61.360;-149.532;2023-09-19T06:30:42;99002.14;;;9.26;57.49
60267;BME280;46125;61.360;-149.532;2023-09-19T06:33:11;99001.22;;;9.39;57.10
60267;BME280;46125;61.360;-149.532;2023-09-19T06:35:40;99002.40;;;9.94;56.07
60267;BME280;46125;61.360;-149.532;2023-09-19T06:38:13;99003.47;;;10.22;55.43
60267;BME280;46125;61.360;-149.532;2023-09-19T06:40:42;99004.91;;;10.07;55.24
60267;BME280;46125;61.360;-149.532;2023-09-19T06:43:11;99009.42;;;10.15;54.35
60267;BME280;46125;61.360;-149.532;2023-09-19T06:45:40;99011.81;;;9.93;54.74
60267;BME280;46125;61.360;-149.532;2023-09-19T06:48:09;99020.47;;;9.04;56.02
60267;BME280;46125;61.360;-149.532;2023-09-19T06:50:37;99023.90;;;9.45;55.77
60267;BME280;46125;61.360;-149.532;2023-09-19T06:53:05;99027.89;;;10.16;54.31
60267;BME280;46125;61.360;-149.532;2023-09-19T06:55:34;99029.36;;;10.28;53.95
60267;BME280;46125;61.360;-149.532;2023-09-19T06:58:03;99035.69;;;10.72;53.79
60267;BME280;46125;61.360;-149.532;2023-09-19T07:00:31;99035.95;;;10.90;53.65
60267;BME280;46125;61.360;-149.532;2023-09-19T07:03:01;99041.69;;;11.06;53.17
60267;BME280;46125;61.360;-149.532;2023-09-19T07:05:31;99047.69;;;10.35;54.84
60267;BME280;46125;61.360;-149.532;2023-09-19T07:08:00;99050.35;;;10.25;54.97
60267;BME280;46125;61.360;-149.532;2023-09-19T07:10:29;99055.93;;;10.27;54.74
60267;BME280;46125;61.360;-149.532;2023-09-19T07:12:58;99056.84;;;10.34;54.23
60267;BME280;46125;61.360;-149.532;2023-09-19T07:15:26;99061.68;;;10.07;54.61
60267;BME280;46125;61.360;-149.532;2023-09-19T07:17:56;99065.75;;;10.41;54.18
60267;BME280;46125;61.360;-149.532;2023-09-19T07:20:25;99071.36;;;9.89;54.71
60267;BME280;46125;61.360;-149.532;2023-09-19T07:22:53;99074.12;;;10.11;53.58
60267;BME280;46125;61.360;-149.532;2023-09-19T07:25:22;99078.22;;;10.14;53.37
60267;BME280;46125;61.360;-149.532;2023-09-19T07:27:50;99083.89;;;9.81;53.43
60267;BME280;46125;61.360;-149.532;2023-09-19T07:30:19;99089.05;;;8.96;55.57
60267;BME280;46125;61.360;-149.532;2023-09-19T07:32:48;99093.34;;;9.51;53.90
60267;BME280;46125;61.360;-149.532;2023-09-19T07:35:16;99092.25;;;9.92;53.22
60267;BME280;46125;61.360;-149.532;2023-09-19T07:37:44;99102.78;;;9.91;52.82
60267;BME280;46125;61.360;-149.532;2023-09-19T07:40:13;99108.79;;;9.62;52.80
60267;BME280;46125;61.360;-149.532;2023-09-19T07:42:41;99116.70;;;9.85;52.76
60267;BME280;46125;61.360;-149.532;2023-09-19T07:45:10;99118.32;;;9.73;52.44
60267;BME280;46125;61.360;-149.532;2023-09-19T07:47:38;99116.47;;;9.70;52.26
60267;BME280;46125;61.360;-149.532;2023-09-19T07:50:07;99117.03;;;9.64;52.38
60267;BME280;46125;61.360;-149.532;2023-09-19T07:52:35;99117.01;;;9.27;52.07
60267;BME280;46125;61.360;-149.532;2023-09-19T07:55:04;99119.63;;;9.17;52.25
60267;BME280;46125;61.360;-149.532;2023-09-19T07:57:32;99123.32;;;9.07;52.53
60267;BME280;46125;61.360;-149.532;2023-09-19T08:00:08;99126.87;;;9.01;52.73
60267;BME280;46125;61.360;-149.532;2023-09-19T08:02:36;99129.27;;;9.17;52.93
60267;BME280;46125;61.360;-149.532;2023-09-19T08:05:05;99131.79;;;9.25;53.17
60267;BME280;46125;61.360;-149.532;2023-09-19T08:07:34;99133.86;;;9.04;52.93
60267;BME280;46125;61.360;-149.532;2023-09-19T08:10:03;99136.98;;;8.92;52.97
60267;BME280;46125;61.360;-149.532;2023-09-19T08:12:31;99144.11;;;8.70;52.73
60267;BME280;46125;61.360;-149.532;2023-09-19T08:15:00;99150.01;;;8.86;52.86
60267;BME280;46125;61.360;-149.532;2023-09-19T08:17:35;99153.41;;;8.58;52.76
60267;BME280;46125;61.360;-149.532;2023-09-19T08:20:04;99155.67;;;8.53;52.84
60267;BME280;46125;61.360;-149.532;2023-09-19T08:22:34;99159.58;;;8.70;52.78
60267;BME280;46125;61.360;-149.532;2023-09-19T08:25:02;99165.07;;;8.86;52.69
60267;BME280;46125;61.360;-149.532;2023-09-19T08:27:31;99172.57;;;8.77;52.81
60267;BME280;46125;61.360;-149.532;2023-09-19T08:29:59;99176.84;;;8.65;52.96
60267;BME280;46125;61.360;-149.532;2023-09-19T08:32:29;99181.23;;;8.61;52.93
60267;BME280;46125;61.360;-149.532;2023-09-19T08:34:57;99184.57;;;8.55;52.94
60267;BME280;46125;61.360;-149.532;2023-09-19T08:37:26;99188.51;;;8.44;52.97
60267;BME280;46125;61.360;-149.532;2023-09-19T08:39:55;99195.63;;;8.43;52.86
60267;BME280;46125;61.360;-149.532;2023-09-19T08:42:24;99196.82;;;8.19;52.27
60267;BME280;46125;61.360;-149.532;2023-09-19T08:44:52;99198.60;;;8.25;52.26
60267;BME280;46125;61.360;-149.532;2023-09-19T08:47:25;99204.39;;;8.09;52.08
60267;BME280;46125;61.360;-149.532;2023-09-19T08:50:07;99207.09;;;7.95;51.97
60267;BME280;46125;61.360;-149.532;2023-09-19T08:52:42;99214.48;;;7.74;52.80
60267;BME280;46125;61.360;-149.532;2023-09-19T08:55:13;99215.65;;;7.99;52.85
60267;BME280;46125;61.360;-149.532;2023-09-19T08:57:42;99217.89;;;7.62;53.48
60267;BME280;46125;61.360;-149.532;2023-09-19T09:00:13;99219.55;;;7.28;53.75
60267;BME280;46125;61.360;-149.532;2023-09-19T09:02:43;99223.75;;;7.34;53.86
60267;BME280;46125;61.360;-149.532;2023-09-19T09:05:13;99223.58;;;7.48;53.97
60267;BME280;46125;61.360;-149.532;2023-09-19T09:07:44;99226.52;;;7.19;53.73
60267;BME280;46125;61.360;-149.532;2023-09-19T09:10:12;99226.96;;;7.48;53.80
60267;BME280;46125;61.360;-149.532;2023-09-19T09:12:41;99224.62;;;7.57;54.05
60267;BME280;46125;61.360;-149.532;2023-09-19T09:15:09;99229.56;;;7.42;53.97
60267;BME280;46125;61.360;-149.532;2023-09-19T09:17:37;99231.13;;;7.20;53.96
60267;BME280;46125;61.360;-149.532;2023-09-19T09:20:07;99235.98;;;7.43;54.10
60267;BME280;46125;61.360;-149.532;2023-09-19T09:22:35;99240.37;;;7.31;54.26
60267;BME280;46125;61.360;-149.532;2023-09-19T09:25:05;99241.98;;;7.50;53.80
60267;BME280;46125;61.360;-149.532;2023-09-19T09:27:32;99245.74;;;7.22;53.62
60267;BME280;46125;61.360;-149.532;2023-09-19T09:30:01;99249.64;;;7.37;53.83
60267;BME280;46125;61.360;-149.532;2023-09-19T09:32:31;99253.99;;;7.11;53.80
60267;BME280;46125;61.360;-149.532;2023-09-19T09:35:01;99258.94;;;7.30;53.60
60267;BME280;46125;61.360;-149.532;2023-09-19T09:37:30;99253.90;;;7.34;53.41
60267;BME280;46125;61.360;-149.532;2023-09-19T09:39:59;99253.96;;;6.71;54.21
60267;BME280;46125;61.360;-149.532;2023-09-19T09:42:33;99257.16;;;6.50;55.57
60267;BME280;46125;61.360;-149.532;2023-09-19T09:45:18;99258.63;;;6.94;54.00
60267;BME280;46125;61.360;-149.532;2023-09-19T09:47:48;99264.58;;;6.85;53.49
60267;BME280;46125;61.360;-149.532;2023-09-19T09:50:25;99267.35;;;7.11;52.96
60267;BME280;46125;61.360;-149.532;2023-09-19T09:52:54;99270.29;;;7.02;53.16
60267;BME280;46125;61.360;-149.532;2023-09-19T09:55:23;99278.12;;;7.09;52.51
60267;BME280;46125;61.360;-149.532;2023-09-19T09:58:02;99281.80;;;7.08;51.90
60267;BME280;46125;61.360;-149.532;2023-09-19T10:00:53;99294.15;;;6.54;53.30
60267;BME280;46125;61.360;-149.532;2023-09-19T10:03:21;99294.74;;;6.90;52.06
60267;BME280;46125;61.360;-149.532;2023-09-19T10:05:54;99300.70;;;5.88;54.66
60267;BME280;46125;61.360;-149.532;2023-09-19T10:08:22;99298.96;;;6.27;53.43
60267;BME280;46125;61.360;-149.532;2023-09-19T10:10:51;99302.58;;;6.43;53.00
60267;BME280;46125;61.360;-149.532;2023-09-19T10:13:20;99302.74;;;6.63;53.45
60267;BME280;46125;61.360;-149.532;2023-09-19T10:15:49;99303.19;;;6.39;53.80
60267;BME280;46125;61.360;-149.532;2023-09-19T10:18:20;99309.78;;;6.43;53.00
60267;BME280;46125;61.360;-149.532;2023-09-19T10:20:49;99314.02;;;6.23;53.00
60267;BME280;46125;61.360;-149.532;2023-09-19T10:23:19;99311.61;;;6.42;52.37
60267;BME280;46125;61.360;-149.532;2023-09-19T10:25:48;99313.11;;;6.56;52.39
60267;BME280;46125;61.360;-149.532;2023-09-19T10:28:19;99318.56;;;6.84;52.00
60267;BME280;46125;61.360;-149.532;2023-09-19T10:30:49;99324.84;;;6.74;51.93
60267;BME280;46125;61.360;-149.532;2023-09-19T10:33:19;99321.95;;;6.25;52.50
60267;BME280;46125;61.360;-149.532;2023-09-19T10:35:50;99320.59;;;5.81;53.78
60267;BME280;46125;61.360;-149.532;2023-09-19T10:38:19;99319.76;;;5.95;53.52
60267;BME280;46125;61.360;-149.532;2023-09-19T10:40:52;99321.78;;;6.11;53.33
60267;BME280;46125;61.360;-149.532;2023-09-19T10:43:26;99321.31;;;5.94;53.29
60267;BME280;46125;61.360;-149.532;2023-09-19T10:46:01;99328.55;;;6.07;52.85
60267;BME280;46125;61.360;-149.532;2023-09-19T10:48:30;99331.21;;;6.26;52.54
60267;BME280;46125;61.360;-149.532;2023-09-19T10:51:04;99333.47;;;6.33;52.14
60267;BME280;46125;61.360;-149.532;2023-09-19T10:53:43;99333.62;;;6.20;51.78
60267;BME280;46125;61.360;-149.532;2023-09-19T10:56:19;99332.14;;;6.47;51.77
60267;BME280;46125;61.360;-149.532;2023-09-19T10:58:49;99331.51;;;6.21;51.79
60267;BME280;46125;61.360;-149.532;2023-09-19T11:01:18;99334.63;;;6.27;50.46
60267;BME280;46125;61.360;-149.532;2023-09-19T11:03:47;99335.71;;;6.55;50.08
60267;BME280;46125;61.360;-149.532;2023-09-19T11:06:17;99337.74;;;6.24;49.84
60267;BME280;46125;61.360;-149.532;2023-09-19T11:08:58;99339.60;;;6.28;49.69
60267;BME280;46125;61.360;-149.532;2023-09-19T11:11:44;99342.32;;;6.42;49.20
60267;BME280;46125;61.360;-149.532;2023-09-19T11:14:15;99346.96;;;6.41;48.16
60267;BME280;46125;61.360;-149.532;2023-09-19T11:17:33;99351.39;;;6.03;50.01
60267;BME280;46125;61.360;-149.532;2023-09-19T11:20:34;99348.82;;;6.09;50.61
60267;BME280;46125;61.360;-149.532;2023-09-19T11:23:35;99349.68;;;6.14;50.20
60267;BME280;46125;61.360;-149.532;2023-09-19T11:26:03;99351.52;;;6.28;50.20
60267;BME280;46125;61.360;-149.532;2023-09-19T11:28:32;99353.70;;;6.09;49.80
60267;BME280;46125;61.360;-149.532;2023-09-19T11:31:42;99354.07;;;6.28;49.96
60267;BME280;46125;61.360;-149.532;2023-09-19T11:34:44;99355.20;;;6.26;49.82
60267;BME280;46125;61.360;-149.532;2023-09-19T11:38:04;99354.86;;;6.24;50.01
60267;BME280;46125;61.360;-149.532;2023-09-19T11:40:32;99360.45;;;6.28;50.32
60267;BME280;46125;61.360;-149.532;2023-09-19T11:43:28;99361.17;;;6.02;50.45
60267;BME280;46125;61.360;-149.532;2023-09-19T11:46:05;99363.33;;;6.28;50.22
60267;BME280;46125;61.360;-149.532;2023-09-19T11:48:35;99370.24;;;6.32;50.04
60267;BME280;46125;61.360;-149.532;2023-09-19T11:51:13;99373.83;;;6.13;50.09
60267;BME280;46125;61.360;-149.532;2023-09-19T11:53:42;99369.84;;;6.35;50.58
60267;BME280;46125;61.360;-149.532;2023-09-19T11:56:11;99371.16;;;6.40;50.55
60267;BME280;46125;61.360;-149.532;2023-09-19T11:58:41;99372.31;;;6.37;50.20
60267;BME280;46125;61.360;-149.532;2023-09-19T12:01:13;99377.29;;;5.98;50.26
60267;BME280;46125;61.360;-149.532;2023-09-19T12:03:46;99375.83;;;6.34;50.08
60267;BME280;46125;61.360;-149.532;2023-09-19T12:06:15;99377.24;;;6.09;49.78
60267;BME280;46125;61.360;-149.532;2023-09-19T12:08:44;99378.89;;;6.37;49.55
60267;BME280;46125;61.360;-149.532;2023-09-19T12:11:14;99376.98;;;6.36;49.46
60267;BME280;46125;61.360;-149.532;2023-09-19T12:13:44;99377.53;;;6.36;49.40
60267;BME280;46125;61.360;-149.532;2023-09-19T12:16:14;99377.69;;;6.15;49.24
60267;BME280;46125;61.360;-149.532;2023-09-19T12:18:44;99375.53;;;6.40;47.25
60267;BME280;46125;61.360;-149.532;2023-09-19T12:21:23;99379.49;;;6.42;47.10
60267;BME280;46125;61.360;-149.532;2023-09-19T12:24:09;99388.06;;;6.01;48.05
60267;BME280;46125;61.360;-149.532;2023-09-19T12:26:41;99394.51;;;5.51;50.76
60267;BME280;46125;61.360;-149.532;2023-09-19T12:29:12;99402.78;;;4.75;52.46
60267;BME280;46125;61.360;-149.532;2023-09-19T12:31:50;99407.97;;;5.15;51.74
60267;BME280;46125;61.360;-149.532;2023-09-19T12:34:22;99411.40;;;5.35;51.44
60267;BME280;46125;61.360;-149.532;2023-09-19T12:37:04;99416.41;;;5.34;51.63
60267;BME280;46125;61.360;-149.532;2023-09-19T12:39:32;99419.09;;;5.25;51.75
60267;BME280;46125;61.360;-149.532;2023-09-19T12:42:01;99421.69;;;4.65;52.72
60267;BME280;46125;61.360;-149.532;2023-09-19T12:44:30;99427.95;;;4.96;52.49
60267;BME280;46125;61.360;-149.532;2023-09-19T12:46:58;99432.00;;;5.13;52.13
60267;BME280;46125;61.360;-149.532;2023-09-19T12:49:27;99434.99;;;5.28;51.78
60267;BME280;46125;61.360;-149.532;2023-09-19T12:51:56;99433.88;;;5.15;51.43
60267;BME280;46125;61.360;-149.532;2023-09-19T12:54:24;99431.91;;;5.52;50.78
60267;BME280;46125;61.360;-149.532;2023-09-19T12:56:52;99429.25;;;5.19;50.98